sensor_id;sensor_type;location;lat;lon;timestamp;temperature;humidity
8487;DHT22;4280;50.534;8.708;2022-11-15T00:01:18;9.40;99.90
8487;DHT22;4280;50.534;8.708;2022-11-15T00:04:06;9.40;99.90
8487;DHT22;4280;50.534;8.708;2022-11-15T00:06:55;9.50;99.20
8487;DHT22;4280;50.534;8.708;2022-11-15T00:09:43;9.40;97.70
8487;DHT22;4280;50.534;8.708;2022-11-15T00:12:32;9.30;99.60
8487;DHT22;4280;50.534;8.708;2022-11-15T00:15:22;9.30;99.40
8487;DHT22;4280;50.534;8.708;2022-11-15T00:18:11;9.30;99.90
8487;DHT22;4280;50.534;8.708;2022-11-15T00:21:03;9.30;99.90
8487;DHT22;4280;50.534;8.708;2022-11-15T00:23:51;9.30;99.90
8487;DHT22;4280;50.534;8.708;2022-11-15T00:26:39;9.30;99.90
8487;DHT22;4280;50.534;8.708;2022-11-15T00:29:27;9.20;99.90
8487;DHT22;4280;50.534;8.708;2022-11-15T00:32:18;9.20;99.90
8487;DHT22;4280;50.534;8.708;2022-11-15T00:35:06;9.20;99.90
8487;DHT22;4280;50.534;8.708;2022-11-15T00:37:55;9.20;99.90
8487;DHT22;4280;50.534;8.708;2022-11-15T00:40:43;9.20;99.90
8487;DHT22;4280;50.534;8.708;2022-11-15T00:43:31;9.10;99.90
8487;DHT22;4280;50.534;8.708;2022-11-15T00:46:20;9.10;99.90
8487;DHT22;4280;50.534;8.708;2022-11-15T00:49:11;9.20;99.90
8487;DHT22;4280;50.534;8.708;2022-11-15T00:51:58;9.30;99.90
8487;DHT22;4280;50.534;8.708;2022-11-15T00:54:47;9.30;99.90
8487;DHT22;4280;50.534;8.708;2022-11-15T00:57:35;9.30;99.90
8487;DHT22;4280;50.534;8.708;2022-11-15T01:00:23;9.30;99.90
8487;DHT22;4280;50.534;8.708;2022-11-15T01:03:11;9.30;99.90
8487;DHT22;4280;50.534;8.708;2022-11-15T01:06:02;9.30;99.90
8487;DHT22;4280;50.534;8.708;2022-11-15T01:08:57;9.30;99.90
8487;DHT22;4280;50.534;8.708;2022-11-15T01:11:46;9.30;99.90
8487;DHT22;4280;50.534;8.708;2022-11-15T01:14:34;9.30;99.90
8487;DHT22;4280;50.534;8.708;2022-11-15T01:17:22;9.30;99.90
8487;DHT22;4280;50.534;8.708;2022-11-15T01:20:11;9.30;99.90
8487;DHT22;4280;50.534;8.708;2022-11-15T01:23:02;9.30;99.90
8487;DHT22;4280;50.534;8.708;2022-11-15T01:25:50;9.20;99.90
8487;DHT22;4280;50.534;8.708;2022-11-15T01:28:39;9.20;99.90
8487;DHT22;4280;50.534;8.708;2022-11-15T01:31:27;9.30;99.90
8487;DHT22;4280;50.534;8.708;2022-11-15T01:34:15;9.20;99.90
8487;DHT22;4280;50.534;8.708;2022-11-15T01:37:04;9.20;99.90
8487;DHT22;4280;50.534;8.708;2022-11-15T01:39:55;9.20;99.90
8487;DHT22;4280;50.534;8.708;2022-11-15T01:42:43;9.20;99.90
8487;DHT22;4280;50.534;8.708;2022-11-15T01:45:31;9.20;99.90
8487;DHT22;4280;50.534;8.708;2022-11-15T01:48:19;9.20;99.90
8487;DHT22;4280;50.534;8.708;2022-11-15T01:51:09;9.20;99.90
8487;DHT22;4280;50.534;8.708;2022-11-15T01:54:00;9.20;99.90
8487;DHT22;4280;50.534;8.708;2022-11-15T01:56:53;9.20;99.90
8487;DHT22;4280;50.534;8.708;2022-11-15T01:59:43;9.20;99.90
8487;DHT22;4280;50.534;8.708;2022-11-15T02:02:32;9.30;99.90
8487;DHT22;4280;50.534;8.708;2022-11-15T02:05:21;9.30;99.90
8487;DHT22;4280;50.534;8.708;2022-11-15T02:08:09;9.30;99.90
8487;DHT22;4280;50.534;8.708;2022-11-15T02:11:07;9.30;99.90
8487;DHT22;4280;50.534;8.708;2022-11-15T02:13:58;9.40;99.90
8487;DHT22;4280;50.534;8.708;2022-11-15T02:16:48;9.40;99.90
8487;DHT22;4280;50.534;8.708;2022-11-15T02:19:55;9.50;99.90
8487;DHT22;4280;50.534;8.708;2022-11-15T02:22:55;9.50;99.40
8487;DHT22;4280;50.534;8.708;2022-11-15T02:25:52;9.50;99.60
8487;DHT22;4280;50.534;8.708;2022-11-15T02:28:48;9.50;98.90
8487;DHT22;4280;50.534;8.708;2022-11-15T02:31:44;9.50;99.40
8487;DHT22;4280;50.534;8.708;2022-11-15T02:34:38;9.50;97.70
8487;DHT22;4280;50.534;8.708;2022-11-15T02:37:33;9.60;97.70
8487;DHT22;4280;50.534;8.708;2022-11-15T02:40:25;9.60;95.30
8487;DHT22;4280;50.534;8.708;2022-11-15T02:43:16;9.60;95.80
8487;DHT22;4280;50.534;8.708;2022-11-15T02:46:18;9.60;95.30
8487;DHT22;4280;50.534;8.708;2022-11-15T02:49:31;9.60;93.40
8487;DHT22;4280;50.534;8.708;2022-11-15T02:52:21;9.60;92.90
8487;DHT22;4280;50.534;8.708;2022-11-15T02:55:25;9.60;94.40
8487;DHT22;4280;50.534;8.708;2022-11-15T02:58:21;9.50;92.60
8487;DHT22;4280;50.534;8.708;2022-11-15T03:01:15;9.60;95.40
8487;DHT22;4280;50.534;8.708;2022-11-15T03:04:08;9.70;92.20
8487;DHT22;4280;50.534;8.708;2022-11-15T03:07:05;9.70;90.70
8487;DHT22;4280;50.534;8.708;2022-11-15T03:09:57;9.70;90.50
8487;DHT22;4280;50.534;8.708;2022-11-15T03:12:48;9.70;90.90
8487;DHT22;4280;50.534;8.708;2022-11-15T03:15:41;9.70;90.30
8487;DHT22;4280;50.534;8.708;2022-11-15T03:18:32;9.80;88.40
8487;DHT22;4280;50.534;8.708;2022-11-15T03:21:21;9.80;84.90
8487;DHT22;4280;50.534;8.708;2022-11-15T03:24:12;9.80;83.20
8487;DHT22;4280;50.534;8.708;2022-11-15T03:27:03;9.80;84.60
8487;DHT22;4280;50.534;8.708;2022-11-15T03:29:54;9.70;85.70
8487;DHT22;4280;50.534;8.708;2022-11-15T03:32:44;9.80;82.80
8487;DHT22;4280;50.534;8.708;2022-11-15T03:35:33;9.70;84.00
8487;DHT22;4280;50.534;8.708;2022-11-15T03:38:24;9.70;88.20
8487;DHT22;4280;50.534;8.708;2022-11-15T03:41:15;9.70;87.00
8487;DHT22;4280;50.534;8.708;2022-11-15T03:44:08;9.70;88.80
8487;DHT22;4280;50.534;8.708;2022-11-15T03:47:00;9.60;88.80
8487;DHT22;4280;50.534;8.708;2022-11-15T03:49:51;9.60;89.40
8487;DHT22;4280;50.534;8.708;2022-11-15T03:52:40;9.60;89.40
8487;DHT22;4280;50.534;8.708;2022-11-15T03:55:28;9.70;88.30
8487;DHT22;4280;50.534;8.708;2022-11-15T03:58:22;9.70;88.40
8487;DHT22;4280;50.534;8.708;2022-11-15T04:01:10;9.70;86.10
8487;DHT22;4280;50.534;8.708;2022-11-15T04:03:58;9.70;84.20
8487;DHT22;4280;50.534;8.708;2022-11-15T04:06:46;9.80;81.70
8487;DHT22;4280;50.534;8.708;2022-11-15T04:09:34;9.90;76.50
8487;DHT22;4280;50.534;8.708;2022-11-15T04:12:44;9.90;79.30
8487;DHT22;4280;50.534;8.708;2022-11-15T04:15:35;9.80;78.30
8487;DHT22;4280;50.534;8.708;2022-11-15T04:18:23;9.90;78.20
8487;DHT22;4280;50.534;8.708;2022-11-15T04:21:11;9.90;77.30
8487;DHT22;4280;50.534;8.708;2022-11-15T04:24:12;9.90;75.30
8487;DHT22;4280;50.534;8.708;2022-11-15T04:27:00;9.90;74.80
8487;DHT22;4280;50.534;8.708;2022-11-15T04:29:49;9.90;76.50
8487;DHT22;4280;50.534;8.708;2022-11-15T04:32:39;9.90;75.90
8487;DHT22;4280;50.534;8.708;2022-11-15T04:35:27;9.90;78.50
8487;DHT22;4280;50.534;8.708;2022-11-15T04:38:16;9.80;76.70
8487;DHT22;4280;50.534;8.708;2022-11-15T04:41:04;9.80;81.50
8487;DHT22;4280;50.534;8.708;2022-11-15T04:43:52;9.70;83.60
8487;DHT22;4280;50.534;8.708;2022-11-15T04:46:40;9.60;82.70
8487;DHT22;4280;50.534;8.708;2022-11-15T04:49:31;9.60;84.90
8487;DHT22;4280;50.534;8.708;2022-11-15T04:52:20;9.50;81.30
8487;DHT22;4280;50.534;8.708;2022-11-15T04:55:08;9.40;83.80
8487;DHT22;4280;50.534;8.708;2022-11-15T04:57:57;9.40;90.40
8487;DHT22;4280;50.534;8.708;2022-11-15T05:00:47;9.30;89.90
8487;DHT22;4280;50.534;8.708;2022-11-15T05:03:35;9.30;91.60
8487;DHT22;4280;50.534;8.708;2022-11-15T05:06:38;9.20;92.20
8487;DHT22;4280;50.534;8.708;2022-11-15T05:09:33;9.10;92.60
8487;DHT22;4280;50.534;8.708;2022-11-15T05:12:21;9.10;94.80
8487;DHT22;4280;50.534;8.708;2022-11-15T05:15:09;9.00;94.60
8487;DHT22;4280;50.534;8.708;2022-11-15T05:17:58;9.00;95.40
8487;DHT22;4280;50.534;8.708;2022-11-15T05:20:47;8.90;94.90
8487;DHT22;4280;50.534;8.708;2022-11-15T05:23:38;8.80;95.00
8487;DHT22;4280;50.534;8.708;2022-11-15T05:26:26;8.70;95.70
8487;DHT22;4280;50.534;8.708;2022-11-15T05:29:14;8.60;98.20
8487;DHT22;4280;50.534;8.708;2022-11-15T05:32:02;8.50;99.10
8487;DHT22;4280;50.534;8.708;2022-11-15T05:34:51;8.50;99.90
8487;DHT22;4280;50.534;8.708;2022-11-15T05:37:39;8.50;99.90
8487;DHT22;4280;50.534;8.708;2022-11-15T05:40:30;8.50;99.90
8487;DHT22;4280;50.534;8.708;2022-11-15T05:43:19;8.50;99.90
8487;DHT22;4280;50.534;8.708;2022-11-15T05:46:07;8.50;99.90
8487;DHT22;4280;50.534;8.708;2022-11-15T05:48:56;8.50;99.90
8487;DHT22;4280;50.534;8.708;2022-11-15T05:51:44;8.50;99.90
8487;DHT22;4280;50.534;8.708;2022-11-15T05:54:34;8.50;99.90
8487;DHT22;4280;50.534;8.708;2022-11-15T05:57:26;8.40;99.90
8487;DHT22;4280;50.534;8.708;2022-11-15T06:00:14;8.40;99.90
8487;DHT22;4280;50.534;8.708;2022-11-15T06:03:02;8.30;99.90
8487;DHT22;4280;50.534;8.708;2022-11-15T06:05:51;8.30;99.90
8487;DHT22;4280;50.534;8.708;2022-11-15T06:08:39;8.20;99.90
8487;DHT22;4280;50.534;8.708;2022-11-15T06:11:27;8.10;99.90
8487;DHT22;4280;50.534;8.708;2022-11-15T06:14:18;8.10;99.90
8487;DHT22;4280;50.534;8.708;2022-11-15T06:17:06;8.10;99.90
8487;DHT22;4280;50.534;8.708;2022-11-15T06:19:55;8.20;99.90
8487;DHT22;4280;50.534;8.708;2022-11-15T06:22:44;8.30;99.90
8487;DHT22;4280;50.534;8.708;2022-11-15T06:25:32;8.30;99.90
8487;DHT22;4280;50.534;8.708;2022-11-15T06:28:20;8.40;99.90
8487;DHT22;4280;50.534;8.708;2022-11-15T06:31:11;8.40;99.90
8487;DHT22;4280;50.534;8.708;2022-11-15T06:33:59;8.50;99.90
8487;DHT22;4280;50.534;8.708;2022-11-15T06:36:48;8.60;99.90
8487;DHT22;4280;50.534;8.708;2022-11-15T06:39:36;8.60;99.90
8487;DHT22;4280;50.534;8.708;2022-11-15T06:42:24;8.70;99.90
8487;DHT22;4280;50.534;8.708;2022-11-15T06:45:12;8.80;99.90
8487;DHT22;4280;50.534;8.708;2022-11-15T06:48:03;8.80;99.90
8487;DHT22;4280;50.534;8.708;2022-11-15T06:50:52;8.90;99.90
8487;DHT22;4280;50.534;8.708;2022-11-15T06:53:41;8.90;99.90
8487;DHT22;4280;50.534;8.708;2022-11-15T06:56:29;8.90;99.90
8487;DHT22;4280;50.534;8.708;2022-11-15T06:59:17;8.90;99.90
8487;DHT22;4280;50.534;8.708;2022-11-15T07:02:05;8.90;99.90
8487;DHT22;4280;50.534;8.708;2022-11-15T07:04:56;8.90;99.90
8487;DHT22;4280;50.534;8.708;2022-11-15T07:07:50;8.90;99.90
8487;DHT22;4280;50.534;8.708;2022-11-15T07:10:38;8.90;99.90
8487;DHT22;4280;50.534;8.708;2022-11-15T07:13:27;9.00;99.90
8487;DHT22;4280;50.534;8.708;2022-11-15T07:16:18;9.00;99.90
8487;DHT22;4280;50.534;8.708;2022-11-15T07:19:08;9.00;99.90
8487;DHT22;4280;50.534;8.708;2022-11-15T07:21:58;9.10;99.90
8487;DHT22;4280;50.534;8.708;2022-11-15T07:24:47;9.20;99.90
8487;DHT22;4280;50.534;8.708;2022-11-15T07:27:35;9.20;99.60
8487;DHT22;4280;50.534;8.708;2022-11-15T07:30:23;9.30;99.90
8487;DHT22;4280;50.534;8.708;2022-11-15T07:33:12;9.30;99.90
8487;DHT22;4280;50.534;8.708;2022-11-15T07:36:00;9.50;98.50
8487;DHT22;4280;50.534;8.708;2022-11-15T07:38:52;9.60;95.20
8487;DHT22;4280;50.534;8.708;2022-11-15T07:41:40;9.70;93.30
8487;DHT22;4280;50.534;8.708;2022-11-15T07:44:29;9.80;91.40
8487;DHT22;4280;50.534;8.708;2022-11-15T07:47:17;9.80;91.00
8487;DHT22;4280;50.534;8.708;2022-11-15T07:50:05;9.90;91.00
8487;DHT22;4280;50.534;8.708;2022-11-15T07:52:54;10.00;85.10
8487;DHT22;4280;50.534;8.708;2022-11-15T07:55:45;10.00;80.90
8487;DHT22;4280;50.534;8.708;2022-11-15T07:58:33;10.10;74.00
8487;DHT22;4280;50.534;8.708;2022-11-15T08:01:21;10.20;72.70
8487;DHT22;4280;50.534;8.708;2022-11-15T08:04:09;10.30;69.30
8487;DHT22;4280;50.534;8.708;2022-11-15T08:06:58;10.40;62.20
8487;DHT22;4280;50.534;8.708;2022-11-15T08:09:46;10.40;59.40
8487;DHT22;4280;50.534;8.708;2022-11-15T08:12:54;10.50;61.40
8487;DHT22;4280;50.534;8.708;2022-11-15T08:15:44;10.50;59.70
8487;DHT22;4280;50.534;8.708;2022-11-15T08:18:33;10.60;58.20
8487;DHT22;4280;50.534;8.708;2022-11-15T08:21:21;10.70;55.70
8487;DHT22;4280;50.534;8.708;2022-11-15T08:24:09;10.80;48.50
8487;DHT22;4280;50.534;8.708;2022-11-15T08:26:58;10.80;48.20
8487;DHT22;4280;50.534;8.708;2022-11-15T08:29:49;10.70;49.00
8487;DHT22;4280;50.534;8.708;2022-11-15T08:32:41;10.70;51.30
8487;DHT22;4280;50.534;8.708;2022-11-15T08:35:29;10.70;53.10
8487;DHT22;4280;50.534;8.708;2022-11-15T08:38:17;10.60;50.60
8487;DHT22;4280;50.534;8.708;2022-11-15T08:41:05;10.60;49.50
8487;DHT22;4280;50.534;8.708;2022-11-15T08:43:54;10.50;48.40
8487;DHT22;4280;50.534;8.708;2022-11-15T08:46:45;10.60;48.90
8487;DHT22;4280;50.534;8.708;2022-11-15T08:49:33;10.60;58.20
8487;DHT22;4280;50.534;8.708;2022-11-15T08:52:21;10.60;55.50
8487;DHT22;4280;50.534;8.708;2022-11-15T08:55:09;10.70;57.20
8487;DHT22;4280;50.534;8.708;2022-11-15T08:57:57;10.70;55.00
8487;DHT22;4280;50.534;8.708;2022-11-15T09:00:45;10.80;51.60
8487;DHT22;4280;50.534;8.708;2022-11-15T09:03:36;11.00;52.80
8487;DHT22;4280;50.534;8.708;2022-11-15T09:06:24;11.00;55.90
8487;DHT22;4280;50.534;8.708;2022-11-15T09:09:12;11.10;54.20
8487;DHT22;4280;50.534;8.708;2022-11-15T09:12:04;11.20;50.60
8487;DHT22;4280;50.534;8.708;2022-11-15T09:17:47;11.10;59.30
8487;DHT22;4280;50.534;8.708;2022-11-15T09:23:33;11.30;60.30
8487;DHT22;4280;50.534;8.708;2022-11-15T09:29:13;11.40;69.00
8487;DHT22;4280;50.534;8.708;2022-11-15T09:34:57;11.60;70.20
8487;DHT22;4280;50.534;8.708;2022-11-15T09:37:45;11.70;62.50
8487;DHT22;4280;50.534;8.708;2022-11-15T09:40:39;11.70;63.90
8487;DHT22;4280;50.534;8.708;2022-11-15T09:43:29;11.80;56.30
8487;DHT22;4280;50.534;8.708;2022-11-15T09:46:20;11.80;57.70
8487;DHT22;4280;50.534;8.708;2022-11-15T09:52:07;11.70;49.70
8487;DHT22;4280;50.534;8.708;2022-11-15T09:57:24;11.80;55.20
8487;DHT22;4280;50.534;8.708;2022-11-15T09:59:59;11.90;57.90
8487;DHT22;4280;50.534;8.708;2022-11-15T10:02:51;12.10;50.80
8487;DHT22;4280;50.534;8.708;2022-11-15T10:08:01;12.10;46.50
8487;DHT22;4280;50.534;8.708;2022-11-15T10:10:34;12.20;42.20
8487;DHT22;4280;50.534;8.708;2022-11-15T10:13:08;12.30;43.30
8487;DHT22;4280;50.534;8.708;2022-11-15T10:15:43;12.40;39.70
8487;DHT22;4280;50.534;8.708;2022-11-15T10:18:15;12.40;38.10
8487;DHT22;4280;50.534;8.708;2022-11-15T10:20:47;12.50;37.90
8487;DHT22;4280;50.534;8.708;2022-11-15T10:23:18;12.60;36.20
8487;DHT22;4280;50.534;8.708;2022-11-15T10:25:50;12.70;29.70
8487;DHT22;4280;50.534;8.708;2022-11-15T10:28:25;12.60;31.70
8487;DHT22;4280;50.534;8.708;2022-11-15T10:30:57;12.70;30.40
8487;DHT22;4280;50.534;8.708;2022-11-15T10:33:31;12.70;30.60
8487;DHT22;4280;50.534;8.708;2022-11-15T10:36:18;12.70;25.90
8487;DHT22;4280;50.534;8.708;2022-11-15T10:38:50;12.70;28.90
8487;DHT22;4280;50.534;8.708;2022-11-15T10:41:21;12.80;26.70
8487;DHT22;4280;50.534;8.708;2022-11-15T10:44:20;12.80;27.20
8487;DHT22;4280;50.534;8.708;2022-11-15T10:47:04;12.90;25.80
8487;DHT22;4280;50.534;8.708;2022-11-15T10:49:34;12.80;24.90
8487;DHT22;4280;50.534;8.708;2022-11-15T10:52:12;12.90;26.60
8487;DHT22;4280;50.534;8.708;2022-11-15T10:54:44;12.90;26.20
8487;DHT22;4280;50.534;8.708;2022-11-15T10:57:16;13.00;26.50
8487;DHT22;4280;50.534;8.708;2022-11-15T10:59:49;13.00;23.50
8487;DHT22;4280;50.534;8.708;2022-11-15T11:02:33;13.10;23.70
8487;DHT22;4280;50.534;8.708;2022-11-15T11:05:05;13.20;25.00
8487;DHT22;4280;50.534;8.708;2022-11-15T11:07:35;13.20;24.40
8487;DHT22;4280;50.534;8.708;2022-11-15T11:10:17;13.20;24.80
8487;DHT22;4280;50.534;8.708;2022-11-15T11:13:21;13.10;23.90
8487;DHT22;4280;50.534;8.708;2022-11-15T11:15:55;13.20;26.30
8487;DHT22;4280;50.534;8.708;2022-11-15T11:18:26;13.30;26.50
8487;DHT22;4280;50.534;8.708;2022-11-15T11:20:58;13.40;23.10
8487;DHT22;4280;50.534;8.708;2022-11-15T11:23:37;13.40;22.60
8487;DHT22;4280;50.534;8.708;2022-11-15T11:26:12;13.50;23.60
8487;DHT22;4280;50.534;8.708;2022-11-15T11:28:47;13.50;22.10
8487;DHT22;4280;50.534;8.708;2022-11-15T11:31:23;13.50;19.50
8487;DHT22;4280;50.534;8.708;2022-11-15T11:33:57;13.50;22.30
8487;DHT22;4280;50.534;8.708;2022-11-15T11:36:35;13.50;19.60
8487;DHT22;4280;50.534;8.708;2022-11-15T11:39:17;13.50;18.90
8487;DHT22;4280;50.534;8.708;2022-11-15T11:41:54;13.60;19.60
8487;DHT22;4280;50.534;8.708;2022-11-15T11:44:28;13.50;18.60
8487;DHT22;4280;50.534;8.708;2022-11-15T11:47:03;13.50;18.00
8487;DHT22;4280;50.534;8.708;2022-11-15T11:49:39;13.40;19.60
8487;DHT22;4280;50.534;8.708;2022-11-15T11:52:12;13.30;17.20
8487;DHT22;4280;50.534;8.708;2022-11-15T11:54:50;13.30;18.30
8487;DHT22;4280;50.534;8.708;2022-11-15T11:57:27;13.20;17.70
8487;DHT22;4280;50.534;8.708;2022-11-15T11:59:58;13.30;23.00
8487;DHT22;4280;50.534;8.708;2022-11-15T12:02:40;13.40;25.20
8487;DHT22;4280;50.534;8.708;2022-11-15T12:05:13;13.50;25.20
8487;DHT22;4280;50.534;8.708;2022-11-15T12:07:45;13.60;25.10
8487;DHT22;4280;50.534;8.708;2022-11-15T12:10:18;13.60;26.00
8487;DHT22;4280;50.534;8.708;2022-11-15T12:12:50;13.70;25.30
8487;DHT22;4280;50.534;8.708;2022-11-15T12:15:23;13.70;22.10
8487;DHT22;4280;50.534;8.708;2022-11-15T12:17:56;13.70;23.10
8487;DHT22;4280;50.534;8.708;2022-11-15T12:20:27;13.60;25.80
8487;DHT22;4280;50.534;8.708;2022-11-15T12:22:59;13.50;24.30
8487;DHT22;4280;50.534;8.708;2022-11-15T12:25:31;13.50;25.30
8487;DHT22;4280;50.534;8.708;2022-11-15T12:28:06;13.40;24.50
8487;DHT22;4280;50.534;8.708;2022-11-15T12:30:41;13.40;28.30
8487;DHT22;4280;50.534;8.708;2022-11-15T12:36:01;13.30;22.80
8487;DHT22;4280;50.534;8.708;2022-11-15T12:41:16;13.30;23.50
8487;DHT22;4280;50.534;8.708;2022-11-15T12:43:46;13.30;22.20
8487;DHT22;4280;50.534;8.708;2022-11-15T12:46:20;13.30;21.80
8487;DHT22;4280;50.534;8.708;2022-11-15T12:48:52;13.40;22.10
8487;DHT22;4280;50.534;8.708;2022-11-15T12:59:47;13.30;24.10
8487;DHT22;4280;50.534;8.708;2022-11-15T13:02:18;13.40;26.10
8487;DHT22;4280;50.534;8.708;2022-11-15T13:04:49;13.40;25.40
8487;DHT22;4280;50.534;8.708;2022-11-15T13:10:28;13.50;22.30
8487;DHT22;4280;50.534;8.708;2022-11-15T13:12:57;13.50;22.60
8487;DHT22;4280;50.534;8.708;2022-11-15T13:15:35;13.50;26.50
8487;DHT22;4280;50.534;8.708;2022-11-15T13:20:52;13.40;26.40
8487;DHT22;4280;50.534;8.708;2022-11-15T13:23:25;13.40;27.10
8487;DHT22;4280;50.534;8.708;2022-11-15T13:28:46;13.50;25.80
8487;DHT22;4280;50.534;8.708;2022-11-15T13:31:22;13.50;27.00
8487;DHT22;4280;50.534;8.708;2022-11-15T13:33:53;13.60;22.70
8487;DHT22;4280;50.534;8.708;2022-11-15T13:36:24;13.70;26.80
8487;DHT22;4280;50.534;8.708;2022-11-15T13:38:56;13.70;25.40
8487;DHT22;4280;50.534;8.708;2022-11-15T13:41:28;13.80;21.70
8487;DHT22;4280;50.534;8.708;2022-11-15T13:44:01;13.80;21.20
8487;DHT22;4280;50.534;8.708;2022-11-15T13:46:31;13.80;21.30
8487;DHT22;4280;50.534;8.708;2022-11-15T13:49:01;13.70;24.20
8487;DHT22;4280;50.534;8.708;2022-11-15T13:51:33;13.60;24.80
8487;DHT22;4280;50.534;8.708;2022-11-15T13:54:06;13.50;24.70
8487;DHT22;4280;50.534;8.708;2022-11-15T13:56:37;13.40;25.70
8487;DHT22;4280;50.534;8.708;2022-11-15T13:59:13;13.40;26.90
8487;DHT22;4280;50.534;8.708;2022-11-15T14:01:43;13.30;24.40
8487;DHT22;4280;50.534;8.708;2022-11-15T14:04:13;13.30;24.60
8487;DHT22;4280;50.534;8.708;2022-11-15T14:06:48;13.30;26.80
8487;DHT22;4280;50.534;8.708;2022-11-15T15:13:28;13.30;31.40
8487;DHT22;4280;50.534;8.708;2022-11-15T15:15:58;12.30;38.60
8487;DHT22;4280;50.534;8.708;2022-11-15T15:18:27;12.30;40.10
8487;DHT22;4280;50.534;8.708;2022-11-15T15:20:58;12.30;38.00
8487;DHT22;4280;50.534;8.708;2022-11-15T15:23:29;12.30;41.00
8487;DHT22;4280;50.534;8.708;2022-11-15T15:25:58;12.30;44.10
8487;DHT22;4280;50.534;8.708;2022-11-15T15:28:31;12.20;40.00
8487;DHT22;4280;50.534;8.708;2022-11-15T15:31:01;12.20;44.00
8487;DHT22;4280;50.534;8.708;2022-11-15T15:33:31;12.10;44.40
8487;DHT22;4280;50.534;8.708;2022-11-15T15:36:01;12.10;45.20
8487;DHT22;4280;50.534;8.708;2022-11-15T15:38:31;12.10;47.70
8487;DHT22;4280;50.534;8.708;2022-11-15T15:41:01;12.00;45.30
8487;DHT22;4280;50.534;8.708;2022-11-15T15:43:33;12.00;48.80
8487;DHT22;4280;50.534;8.708;2022-11-15T15:46:03;12.00;48.30
8487;DHT22;4280;50.534;8.708;2022-11-15T15:48:32;12.00;49.30
8487;DHT22;4280;50.534;8.708;2022-11-15T15:51:03;12.00;57.70
8487;DHT22;4280;50.534;8.708;2022-11-15T15:53:38;12.00;61.80
8487;DHT22;4280;50.534;8.708;2022-11-15T15:56:08;12.00;64.30
8487;DHT22;4280;50.534;8.708;2022-11-15T15:58:40;12.00;52.60
8487;DHT22;4280;50.534;8.708;2022-11-15T16:01:10;12.00;59.90
8487;DHT22;4280;50.534;8.708;2022-11-15T16:03:40;12.00;57.00
8487;DHT22;4280;50.534;8.708;2022-11-15T16:06:25;12.00;53.00
8487;DHT22;4280;50.534;8.708;2022-11-15T16:09:02;12.00;61.00
8487;DHT22;4280;50.534;8.708;2022-11-15T16:11:46;12.00;61.20
8487;DHT22;4280;50.534;8.708;2022-11-15T16:14:18;12.00;61.00
8487;DHT22;4280;50.534;8.708;2022-11-15T16:16:48;11.90;62.20
8487;DHT22;4280;50.534;8.708;2022-11-15T16:19:17;11.80;61.00
8487;DHT22;4280;50.534;8.708;2022-11-15T16:21:47;11.80;61.30
8487;DHT22;4280;50.534;8.708;2022-11-15T16:24:18;11.70;64.70
8487;DHT22;4280;50.534;8.708;2022-11-15T16:26:48;11.70;72.30
8487;DHT22;4280;50.534;8.708;2022-11-15T16:29:21;11.80;72.40
8487;DHT22;4280;50.534;8.708;2022-11-15T16:31:51;11.80;67.00
8487;DHT22;4280;50.534;8.708;2022-11-15T16:34:20;11.70;69.00
8487;DHT22;4280;50.534;8.708;2022-11-15T16:36:53;11.70;69.30
8487;DHT22;4280;50.534;8.708;2022-11-15T16:39:22;11.70;71.40
8487;DHT22;4280;50.534;8.708;2022-11-15T16:41:54;11.80;70.40
8487;DHT22;4280;50.534;8.708;2022-11-15T16:44:26;11.70;67.30
8487;DHT22;4280;50.534;8.708;2022-11-15T16:46:56;11.70;69.20
8487;DHT22;4280;50.534;8.708;2022-11-15T16:49:26;11.60;79.40
8487;DHT22;4280;50.534;8.708;2022-11-15T16:51:56;11.60;65.50
8487;DHT22;4280;50.534;8.708;2022-11-15T16:54:25;11.60;68.90
8487;DHT22;4280;50.534;8.708;2022-11-15T16:56:55;11.60;70.80
8487;DHT22;4280;50.534;8.708;2022-11-15T16:59:27;11.60;68.40
8487;DHT22;4280;50.534;8.708;2022-11-15T17:02:02;11.60;72.10
8487;DHT22;4280;50.534;8.708;2022-11-15T17:04:32;11.60;69.20
8487;DHT22;4280;50.534;8.708;2022-11-15T17:07:01;11.60;70.50
8487;DHT22;4280;50.534;8.708;2022-11-15T17:09:31;11.60;64.10
8487;DHT22;4280;50.534;8.708;2022-11-15T17:12:01;11.60;67.50
8487;DHT22;4280;50.534;8.708;2022-11-15T17:14:33;11.60;80.20
8487;DHT22;4280;50.534;8.708;2022-11-15T17:17:03;11.60;70.20
8487;DHT22;4280;50.534;8.708;2022-11-15T17:19:32;11.60;65.90
8487;DHT22;4280;50.534;8.708;2022-11-15T17:22:02;11.50;65.90
8487;DHT22;4280;50.534;8.708;2022-11-15T17:24:32;11.60;65.00
8487;DHT22;4280;50.534;8.708;2022-11-15T17:27:01;11.60;63.50
8487;DHT22;4280;50.534;8.708;2022-11-15T17:29:34;11.50;60.60
8487;DHT22;4280;50.534;8.708;2022-11-15T17:32:03;11.50;62.60
8487;DHT22;4280;50.534;8.708;2022-11-15T17:34:33;11.40;62.80
8487;DHT22;4280;50.534;8.708;2022-11-15T17:37:03;11.40;66.60
8487;DHT22;4280;50.534;8.708;2022-11-15T17:39:32;11.30;67.20
8487;DHT22;4280;50.534;8.708;2022-11-15T17:42:02;11.30;67.00
8487;DHT22;4280;50.534;8.708;2022-11-15T17:44:34;11.30;63.70
8487;DHT22;4280;50.534;8.708;2022-11-15T17:47:04;11.20;63.40
8487;DHT22;4280;50.534;8.708;2022-11-15T17:49:34;11.20;65.20
8487;DHT22;4280;50.534;8.708;2022-11-15T17:52:06;11.20;62.40
8487;DHT22;4280;50.534;8.708;2022-11-15T17:54:36;11.20;57.20
8487;DHT22;4280;50.534;8.708;2022-11-15T17:57:05;11.30;50.20
8487;DHT22;4280;50.534;8.708;2022-11-15T17:59:37;11.30;49.10
8487;DHT22;4280;50.534;8.708;2022-11-15T18:02:08;11.30;48.90
8487;DHT22;4280;50.534;8.708;2022-11-15T18:04:37;11.40;51.10
8487;DHT22;4280;50.534;8.708;2022-11-15T18:07:07;11.40;48.60
8487;DHT22;4280;50.534;8.708;2022-11-15T18:09:39;11.30;42.40
8487;DHT22;4280;50.534;8.708;2022-11-15T18:12:09;11.30;49.60
8487;DHT22;4280;50.534;8.708;2022-11-15T18:14:42;11.20;48.60
8487;DHT22;4280;50.534;8.708;2022-11-15T18:17:12;11.20;49.20
8487;DHT22;4280;50.534;8.708;2022-11-15T18:19:43;11.20;53.10
8487;DHT22;4280;50.534;8.708;2022-11-15T18:22:14;11.10;52.90
8487;DHT22;4280;50.534;8.708;2022-11-15T18:24:44;11.00;53.10
8487;DHT22;4280;50.534;8.708;2022-11-15T18:27:13;10.90;58.70
8487;DHT22;4280;50.534;8.708;2022-11-15T18:29:46;10.90;60.60
8487;DHT22;4280;50.534;8.708;2022-11-15T18:32:15;10.90;56.00
8487;DHT22;4280;50.534;8.708;2022-11-15T18:34:45;10.80;57.40
8487;DHT22;4280;50.534;8.708;2022-11-15T18:37:15;10.80;59.40
8487;DHT22;4280;50.534;8.708;2022-11-15T18:39:44;10.80;60.20
8487;DHT22;4280;50.534;8.708;2022-11-15T18:42:16;10.80;59.60
8487;DHT22;4280;50.534;8.708;2022-11-15T18:44:48;10.80;58.90
8487;DHT22;4280;50.534;8.708;2022-11-15T18:47:18;10.80;55.60
8487;DHT22;4280;50.534;8.708;2022-11-15T18:49:48;10.80;60.10
8487;DHT22;4280;50.534;8.708;2022-11-15T18:52:17;10.80;60.60
8487;DHT22;4280;50.534;8.708;2022-11-15T18:54:48;10.70;59.60
8487;DHT22;4280;50.534;8.708;2022-11-15T18:57:18;10.70;57.30
8487;DHT22;4280;50.534;8.708;2022-11-15T18:59:50;10.70;60.90
8487;DHT22;4280;50.534;8.708;2022-11-15T19:02:19;10.70;60.40
8487;DHT22;4280;50.534;8.708;2022-11-15T19:04:49;10.70;59.80
8487;DHT22;4280;50.534;8.708;2022-11-15T19:07:19;10.70;60.80
8487;DHT22;4280;50.534;8.708;2022-11-15T19:09:49;10.70;60.00
8487;DHT22;4280;50.534;8.708;2022-11-15T19:12:18;10.60;59.50
8487;DHT22;4280;50.534;8.708;2022-11-15T19:14:50;10.60;61.00
8487;DHT22;4280;50.534;8.708;2022-11-15T19:17:20;10.60;60.00
8487;DHT22;4280;50.534;8.708;2022-11-15T19:19:50;10.60;59.50
8487;DHT22;4280;50.534;8.708;2022-11-15T19:22:19;10.60;60.00
8487;DHT22;4280;50.534;8.708;2022-11-15T19:24:49;10.60;57.60
8487;DHT22;4280;50.534;8.708;2022-11-15T19:27:18;10.70;59.70
8487;DHT22;4280;50.534;8.708;2022-11-15T19:29:51;10.70;54.40